createdAt,value
2023-10-31T00:01:58.762Z,5.70
2023-10-31T00:04:25.434Z,5.70
2023-10-31T00:06:52.067Z,5.60
2023-10-31T00:09:18.949Z,5.60
2023-10-31T00:11:45.736Z,5.60
2023-10-31T00:14:29.326Z,5.50
2023-10-31T00:16:57.892Z,5.50
2023-10-31T00:19:24.542Z,5.50
2023-10-31T00:21:51.158Z,5.40
2023-10-31T00:24:17.782Z,5.40
2023-10-31T00:26:44.407Z,5.40
2023-10-31T00:29:11.019Z,5.40
2023-10-31T00:31:42.105Z,5.30
2023-10-31T00:34:09.345Z,5.30
2023-10-31T00:36:35.985Z,5.30
2023-10-31T00:39:02.770Z,5.30
2023-10-31T00:41:29.432Z,5.30
2023-10-31T00:43:56.088Z,5.30
2023-10-31T00:46:22.729Z,5.30
2023-10-31T00:48:49.370Z,5.20
2023-10-31T00:51:16.014Z,5.20
2023-10-31T00:53:42.662Z,5.20
2023-10-31T00:56:09.418Z,5.20
2023-10-31T00:58:36.101Z,5.20
2023-10-31T01:01:02.854Z,5.20
2023-10-31T01:03:30.001Z,5.20
2023-10-31T01:05:56.755Z,5.20
2023-10-31T01:08:23.435Z,5.20
2023-10-31T01:10:50.115Z,5.20
2023-10-31T01:13:16.823Z,5.20
2023-10-31T01:15:43.566Z,5.20
2023-10-31T01:18:10.344Z,5.20
2023-10-31T01:20:37.022Z,5.10
2023-10-31T01:23:03.756Z,5.10
2023-10-31T01:25:30.417Z,5.10
2023-10-31T01:27:57.051Z,5.10
2023-10-31T01:30:23.713Z,5.10
2023-10-31T01:32:50.413Z,5.10
2023-10-31T01:35:17.243Z,5.10
2023-10-31T01:37:43.947Z,5.00
2023-10-31T01:40:11.225Z,5.00
2023-10-31T01:42:37.856Z,5.00
2023-10-31T01:45:04.722Z,5.00
2023-10-31T01:47:31.403Z,4.90
2023-10-31T01:49:58.888Z,4.90
2023-10-31T01:52:25.535Z,4.90
2023-10-31T01:57:19.314Z,4.80
2023-10-31T01:59:45.976Z,4.80
2023-10-31T02:02:12.628Z,4.80
2023-10-31T02:04:39.309Z,4.80
2023-10-31T02:07:05.969Z,4.80
2023-10-31T02:09:32.653Z,4.80
2023-10-31T02:11:59.286Z,4.70
2023-10-31T02:14:25.958Z,4.70
2023-10-31T02:16:52.605Z,4.70
2023-10-31T02:19:19.359Z,4.70
2023-10-31T02:21:46.032Z,4.70
2023-10-31T02:24:12.640Z,4.60
2023-10-31T02:26:39.283Z,4.70
2023-10-31T02:29:06.567Z,4.70
2023-10-31T02:31:33.368Z,4.60
2023-10-31T02:34:00.033Z,4.70
2023-10-31T02:36:26.747Z,4.70
2023-10-31T02:38:53.402Z,4.70
2023-10-31T02:41:20.035Z,4.70
2023-10-31T02:43:46.678Z,4.70
2023-10-31T02:46:14.677Z,4.70
2023-10-31T02:48:41.348Z,4.60
2023-10-31T02:51:11.202Z,4.70
2023-10-31T02:53:38.157Z,4.70
2023-10-31T02:56:05.031Z,4.60
2023-10-31T02:58:31.836Z,4.60
2023-10-31T03:00:58.497Z,4.60
2023-10-31T03:03:25.200Z,4.60
2023-10-31T03:05:51.809Z,4.60
2023-10-31T03:08:21.855Z,4.60
2023-10-31T03:10:51.067Z,4.60
2023-10-31T03:13:17.814Z,4.60
2023-10-31T03:15:44.527Z,4.60
2023-10-31T03:18:11.116Z,4.60
2023-10-31T03:20:37.763Z,4.60
2023-10-31T03:23:04.466Z,4.60
2023-10-31T03:25:31.160Z,4.60
2023-10-31T03:27:57.893Z,4.70
2023-10-31T03:30:24.535Z,4.70
2023-10-31T03:32:51.170Z,4.70
2023-10-31T03:35:17.882Z,4.70
2023-10-31T03:37:44.578Z,4.80
2023-10-31T03:40:11.327Z,4.80
2023-10-31T03:42:37.952Z,4.80
2023-10-31T03:45:04.579Z,4.90
2023-10-31T03:47:31.283Z,4.90
2023-10-31T03:49:58.245Z,5.00
2023-10-31T03:52:24.891Z,5.00
2023-10-31T03:54:51.521Z,5.10
2023-10-31T03:57:18.182Z,5.10
2023-10-31T03:59:44.817Z,5.20
2023-10-31T04:02:11.524Z,5.20
2023-10-31T04:04:38.260Z,5.20
2023-10-31T04:07:04.883Z,5.20
2023-10-31T04:09:31.532Z,5.30
2023-10-31T04:11:58.192Z,5.30
2023-10-31T04:14:24.836Z,5.40
2023-10-31T04:16:51.528Z,5.40
2023-10-31T04:19:18.210Z,5.50
2023-10-31T04:21:45.027Z,5.50
2023-10-31T04:24:11.718Z,5.50
2023-10-31T04:26:38.403Z,5.50
2023-10-31T04:29:05.073Z,5.60
2023-10-31T04:31:41.381Z,5.60
2023-10-31T04:34:10.606Z,5.60
2023-10-31T04:36:37.311Z,5.60
2023-10-31T04:39:04.004Z,5.60
2023-10-31T04:41:30.638Z,5.60
2023-10-31T04:43:57.671Z,5.70
2023-10-31T04:46:24.393Z,5.70
2023-10-31T04:48:51.071Z,5.70
2023-10-31T04:51:17.744Z,5.80
2023-10-31T04:53:44.389Z,5.90
2023-10-31T04:56:11.068Z,5.90
2023-10-31T04:58:37.706Z,5.90
2023-10-31T05:01:04.399Z,6.00
2023-10-31T05:03:31.184Z,6.10
2023-10-31T05:05:57.883Z,6.10
2023-10-31T05:08:24.507Z,6.20
2023-10-31T05:10:51.184Z,6.20
2023-10-31T05:13:17.844Z,6.30
2023-10-31T05:15:44.477Z,6.30
2023-10-31T05:18:11.111Z,6.40
2023-10-31T05:20:37.725Z,6.40
2023-10-31T05:23:04.378Z,6.40
2023-10-31T05:25:31.044Z,6.50
2023-10-31T05:27:57.699Z,6.50
2023-10-31T05:30:24.357Z,6.50
2023-10-31T05:32:51.119Z,6.60
2023-10-31T05:35:17.763Z,6.60
2023-10-31T05:37:44.610Z,6.60
2023-10-31T05:40:11.363Z,6.60
2023-10-31T05:42:37.999Z,6.60
2023-10-31T05:45:04.711Z,6.60
2023-10-31T05:47:31.414Z,6.60
2023-10-31T05:49:58.701Z,6.70
2023-10-31T05:52:25.336Z,6.70
2023-10-31T05:54:51.983Z,6.70
2023-10-31T05:57:18.693Z,6.60
2023-10-31T05:59:45.324Z,6.70
2023-10-31T06:02:12.004Z,6.70
2023-10-31T06:04:38.655Z,6.70
2023-10-31T06:07:05.298Z,6.70
2023-10-31T06:09:34.195Z,6.60
2023-10-31T06:12:00.821Z,6.60
2023-10-31T06:14:27.535Z,6.60
2023-10-31T06:16:54.902Z,6.60
2023-10-31T06:19:21.879Z,6.50
2023-10-31T06:21:49.267Z,6.60
2023-10-31T06:24:15.973Z,6.60
2023-10-31T06:26:42.597Z,6.60
2023-10-31T06:29:27.812Z,6.60
2023-10-31T06:31:55.917Z,6.60
2023-10-31T06:34:22.580Z,6.60
2023-10-31T06:36:49.536Z,6.60
2023-10-31T06:39:16.208Z,6.60
2023-10-31T06:41:42.880Z,6.60
2023-10-31T06:44:09.533Z,6.60
2023-10-31T06:46:36.310Z,6.70
2023-10-31T06:49:03.128Z,6.70
2023-10-31T06:51:29.801Z,6.70
2023-10-31T06:53:56.439Z,6.70
2023-10-31T06:56:23.187Z,6.70
2023-10-31T06:58:49.824Z,6.80
2023-10-31T07:01:19.716Z,6.80
2023-10-31T07:03:46.443Z,6.80
2023-10-31T07:06:13.145Z,6.80
2023-10-31T07:08:39.824Z,6.80
2023-10-31T07:11:06.477Z,6.80
2023-10-31T07:13:33.118Z,6.90
2023-10-31T07:15:59.863Z,6.90
2023-10-31T07:18:26.629Z,6.90
2023-10-31T07:20:53.349Z,7.00
2023-10-31T07:23:20.021Z,7.10
2023-10-31T07:25:46.842Z,7.10
2023-10-31T07:28:13.565Z,7.10
2023-10-31T07:30:40.218Z,7.20
2023-10-31T07:33:07.029Z,7.20
2023-10-31T07:35:33.772Z,7.30
2023-10-31T07:38:00.437Z,7.40
2023-10-31T07:40:27.076Z,7.40
2023-10-31T07:42:53.686Z,7.50
2023-10-31T07:45:20.342Z,7.60
2023-10-31T07:47:47.040Z,7.70
2023-10-31T07:50:14.560Z,7.90
2023-10-31T07:52:41.319Z,8.00
2023-10-31T07:55:07.953Z,8.00
2023-10-31T07:57:34.647Z,8.10
2023-10-31T08:00:01.775Z,8.20
2023-10-31T08:02:28.564Z,8.30
2023-10-31T08:04:55.492Z,8.40
2023-10-31T08:07:22.232Z,8.50
2023-10-31T08:09:48.937Z,8.60
2023-10-31T08:12:15.812Z,8.70
2023-10-31T08:14:42.574Z,8.80
2023-10-31T08:17:10.380Z,8.90
2023-10-31T08:19:37.046Z,9.00
2023-10-31T08:22:03.709Z,9.10
2023-10-31T08:24:30.364Z,9.20
2023-10-31T08:26:57.022Z,9.30
2023-10-31T08:29:23.721Z,9.40
2023-10-31T08:31:50.413Z,9.40
2023-10-31T08:34:17.091Z,9.40
2023-10-31T08:36:43.725Z,9.50
2023-10-31T08:39:12.064Z,9.50
2023-10-31T08:41:40.748Z,9.60
2023-10-31T08:44:07.469Z,9.60
2023-10-31T08:46:34.132Z,9.60
2023-10-31T08:49:01.618Z,9.70
2023-10-31T08:51:28.226Z,9.70
2023-10-31T08:53:54.936Z,9.80
2023-10-31T08:56:21.674Z,9.80
2023-10-31T08:58:48.427Z,9.80
2023-10-31T09:01:15.218Z,9.90
2023-10-31T09:03:41.987Z,9.90
2023-10-31T09:06:09.322Z,9.90
2023-10-31T09:08:36.162Z,10.00
2023-10-31T09:11:02.969Z,10.10
2023-10-31T09:13:29.706Z,10.10
2023-10-31T09:15:56.394Z,10.20
2023-10-31T09:18:23.099Z,10.30
2023-10-31T09:20:49.841Z,10.40
2023-10-31T09:23:16.692Z,10.40
2023-10-31T09:25:43.569Z,10.50
2023-10-31T09:28:10.269Z,10.60
2023-10-31T09:30:36.929Z,10.60
2023-10-31T09:33:03.701Z,10.80
2023-10-31T09:35:30.555Z,10.80
2023-10-31T09:37:57.326Z,10.90
2023-10-31T09:40:23.978Z,11.00
2023-10-31T09:42:50.792Z,11.00
2023-10-31T09:45:17.490Z,11.00
2023-10-31T09:47:44.282Z,11.10
2023-10-31T09:50:11.042Z,11.10
2023-10-31T09:52:37.704Z,11.20
2023-10-31T09:55:04.317Z,11.20
2023-10-31T09:57:31.050Z,11.20
2023-10-31T09:59:57.989Z,11.30
2023-10-31T10:02:24.975Z,11.30
2023-10-31T10:04:51.856Z,11.30
2023-10-31T10:07:19.190Z,11.30
2023-10-31T10:09:46.505Z,11.30
2023-10-31T10:12:13.190Z,11.30
2023-10-31T10:14:39.858Z,11.30
2023-10-31T10:17:06.596Z,11.40
2023-10-31T10:19:33.257Z,11.40
2023-10-31T10:22:00.219Z,11.40
2023-10-31T10:24:27.006Z,11.50
2023-10-31T10:26:53.760Z,11.60
2023-10-31T10:29:20.659Z,11.60
2023-10-31T10:31:47.482Z,11.70
2023-10-31T10:34:14.175Z,11.70
2023-10-31T10:36:40.832Z,11.60
2023-10-31T10:39:07.501Z,11.70
2023-10-31T10:41:34.325Z,11.70
2023-10-31T10:44:01.028Z,11.80
2023-10-31T10:46:27.892Z,11.80
2023-10-31T10:48:54.565Z,11.80
2023-10-31T10:51:22.024Z,11.80
2023-10-31T10:53:49.141Z,11.80
2023-10-31T10:56:15.929Z,11.80
2023-10-31T10:58:42.596Z,11.90
2023-10-31T11:01:09.334Z,12.00
2023-10-31T11:03:36.157Z,12.00
2023-10-31T11:06:02.897Z,12.10
2023-10-31T11:08:29.689Z,12.30
2023-10-31T11:10:56.901Z,12.30
2023-10-31T11:13:23.603Z,12.30
2023-10-31T11:15:50.306Z,12.30
2023-10-31T11:18:17.050Z,12.40
2023-10-31T11:20:43.692Z,12.50
2023-10-31T11:23:11.029Z,12.50
2023-10-31T11:25:38.980Z,12.50
2023-10-31T11:28:05.601Z,12.60
2023-10-31T11:30:32.305Z,12.80
2023-10-31T11:32:59.537Z,12.90
2023-10-31T11:35:26.310Z,12.90
2023-10-31T11:37:52.972Z,12.90
2023-10-31T11:40:19.801Z,13.00
2023-10-31T11:42:46.558Z,13.00
2023-10-31T11:45:13.825Z,12.90
2023-10-31T11:47:40.508Z,12.90
2023-10-31T11:50:07.149Z,12.90
2023-10-31T11:52:33.811Z,12.90
2023-10-31T11:55:00.461Z,13.00
2023-10-31T11:57:27.588Z,12.90
2023-10-31T11:59:54.242Z,12.90
2023-10-31T12:02:22.049Z,13.00
2023-10-31T12:04:48.743Z,13.10
2023-10-31T12:07:15.501Z,13.30
2023-10-31T12:09:42.223Z,13.60
2023-10-31T12:12:09.002Z,13.60
2023-10-31T12:14:36.995Z,13.80
2023-10-31T12:17:04.415Z,13.80
2023-10-31T12:19:31.326Z,13.80
2023-10-31T12:21:58.388Z,13.80
2023-10-31T12:24:25.029Z,13.90
2023-10-31T12:26:52.756Z,13.90
2023-10-31T12:29:19.845Z,13.90
2023-10-31T12:31:50.007Z,14.00
2023-10-31T12:34:16.775Z,14.10
2023-10-31T12:36:43.509Z,14.20
2023-10-31T12:39:10.467Z,14.40
2023-10-31T12:41:37.237Z,14.40
2023-10-31T12:44:05.698Z,14.70
2023-10-31T12:46:32.381Z,15.00
2023-10-31T12:48:59.084Z,15.10
2023-10-31T12:51:25.755Z,15.30
2023-10-31T12:53:52.494Z,15.20
2023-10-31T12:56:19.704Z,14.80
2023-10-31T12:58:46.442Z,14.40
2023-10-31T13:01:13.678Z,14.30
2023-10-31T13:03:40.487Z,14.00
2023-10-31T13:06:07.262Z,14.00
2023-10-31T13:08:33.973Z,14.20
2023-10-31T13:11:00.680Z,13.70
2023-10-31T13:13:27.404Z,13.60
2023-10-31T13:15:54.075Z,13.60
2023-10-31T13:18:20.749Z,13.90
2023-10-31T13:20:47.389Z,14.00
2023-10-31T13:23:14.390Z,14.10
2023-10-31T13:25:41.084Z,14.00
2023-10-31T13:28:10.718Z,14.00
2023-10-31T13:30:37.387Z,14.10
2023-10-31T13:33:04.119Z,14.10
2023-10-31T13:35:30.837Z,14.20
2023-10-31T13:37:57.702Z,14.40
2023-10-31T13:40:24.445Z,14.40
2023-10-31T13:42:51.094Z,14.20
2023-10-31T13:45:17.742Z,14.00
2023-10-31T13:47:44.523Z,14.00
2023-10-31T13:50:11.290Z,14.10
2023-10-31T13:52:40.312Z,13.90
2023-10-31T13:55:06.988Z,13.90
2023-10-31T13:57:33.707Z,13.90
2023-10-31T14:00:01.753Z,14.00
2023-10-31T14:02:29.893Z,13.90
2023-10-31T14:04:56.759Z,13.90
2023-10-31T14:07:26.686Z,13.80
2023-10-31T14:09:53.367Z,13.70
2023-10-31T14:12:20.068Z,13.70
2023-10-31T14:14:49.167Z,13.60
2023-10-31T14:17:15.891Z,13.50
2023-10-31T14:19:43.691Z,13.60
2023-10-31T14:22:10.551Z,13.50
2023-10-31T14:24:37.351Z,13.60
2023-10-31T14:27:04.219Z,13.50
2023-10-31T14:29:30.888Z,13.60
2023-10-31T14:31:58.749Z,13.60
2023-10-31T14:34:25.473Z,13.70
2023-10-31T14:36:52.208Z,13.60
2023-10-31T14:39:18.856Z,13.70
2023-10-31T14:41:45.587Z,13.80
2023-10-31T14:44:12.447Z,13.70
2023-10-31T14:46:39.376Z,13.70
2023-10-31T14:49:06.189Z,13.80
2023-10-31T14:51:32.906Z,13.80
2023-10-31T14:53:59.759Z,13.70
2023-10-31T14:56:28.255Z,13.70
2023-10-31T14:58:54.989Z,13.70
2023-10-31T15:01:21.693Z,13.70
2023-10-31T15:03:48.490Z,13.60
2023-10-31T15:06:16.354Z,13.70
2023-10-31T15:08:43.068Z,13.70
2023-10-31T15:11:09.782Z,13.60
2023-10-31T15:13:37.038Z,13.60
2023-10-31T15:16:04.063Z,13.60
2023-10-31T15:18:30.833Z,13.50
2023-10-31T15:20:58.830Z,13.50
2023-10-31T15:23:27.224Z,13.50
2023-10-31T15:25:53.871Z,13.50
2023-10-31T15:28:20.569Z,13.40
2023-10-31T15:30:47.305Z,13.40
2023-10-31T15:33:14.052Z,13.40
2023-10-31T15:35:40.882Z,13.50
2023-10-31T15:41:30.237Z,13.60
2023-10-31T15:43:56.985Z,13.30
2023-10-31T15:46:23.706Z,13.30
2023-10-31T15:48:50.527Z,13.10
2023-10-31T15:51:17.253Z,13.10
2023-10-31T15:53:43.967Z,13.00
2023-10-31T15:56:11.408Z,13.00
2023-10-31T15:58:38.425Z,13.00
2023-10-31T16:03:58.203Z,12.90
2023-10-31T16:06:24.883Z,12.90
2023-10-31T16:08:51.607Z,12.80
2023-10-31T16:11:26.258Z,12.80
2023-10-31T16:13:54.007Z,12.80
2023-10-31T16:16:21.084Z,12.80
2023-10-31T16:18:50.402Z,12.80
2023-10-31T16:24:03.296Z,12.80
2023-10-31T16:26:30.047Z,12.80
2023-10-31T16:28:58.713Z,12.70
2023-10-31T16:34:09.463Z,12.50
2023-10-31T16:36:36.134Z,12.40
2023-10-31T16:39:02.789Z,12.30
2023-10-31T16:41:30.577Z,12.30
2023-10-31T16:43:57.277Z,12.20
2023-10-31T16:46:24.043Z,12.10
2023-10-31T16:48:50.875Z,12.10
2023-10-31T16:51:18.210Z,12.10
2023-10-31T16:53:45.284Z,12.00
2023-10-31T16:56:12.148Z,12.00
2023-10-31T16:58:38.933Z,12.00
2023-10-31T17:01:05.642Z,12.00
2023-10-31T17:03:32.452Z,11.90
2023-10-31T17:05:59.202Z,11.90
2023-10-31T17:08:25.902Z,11.80
2023-10-31T17:10:53.265Z,11.70
2023-10-31T17:13:20.003Z,11.70
2023-10-31T17:15:46.689Z,11.70
2023-10-31T17:18:14.425Z,11.60
2023-10-31T17:20:41.226Z,11.50
2023-10-31T17:23:08.049Z,11.50
2023-10-31T17:25:34.804Z,11.50
2023-10-31T17:28:01.516Z,11.50
2023-10-31T17:30:28.543Z,11.40
2023-10-31T17:32:55.592Z,11.40
2023-10-31T17:35:22.395Z,11.30
2023-10-31T17:37:49.147Z,11.30
2023-10-31T17:40:15.958Z,11.20
2023-10-31T17:42:42.693Z,11.20
2023-10-31T17:45:09.942Z,11.20
2023-10-31T17:47:36.950Z,11.10
2023-10-31T17:50:03.680Z,11.10
2023-10-31T17:52:30.431Z,11.10
2023-10-31T17:54:57.201Z,11.10
2023-10-31T17:57:26.534Z,11.10
2023-10-31T17:59:55.054Z,11.10
2023-10-31T18:02:21.757Z,11.10
2023-10-31T18:04:48.480Z,11.10
2023-10-31T18:07:15.384Z,11.10
2023-10-31T18:09:42.160Z,11.10
2023-10-31T18:12:09.015Z,11.10
2023-10-31T18:14:36.829Z,11.10
2023-10-31T18:17:03.815Z,11.10
2023-10-31T18:19:30.542Z,11.20
2023-10-31T18:21:58.871Z,11.20
2023-10-31T18:24:25.596Z,11.20
2023-10-31T18:26:52.455Z,11.20
2023-10-31T18:29:19.313Z,11.20
2023-10-31T18:31:46.433Z,11.20
2023-10-31T18:34:13.611Z,11.20
2023-10-31T18:36:40.358Z,11.20
2023-10-31T18:39:07.185Z,11.30
2023-10-31T18:41:35.367Z,11.30
2023-10-31T18:44:17.000Z,11.30
2023-10-31T18:46:49.570Z,11.30
2023-10-31T18:49:16.430Z,11.30
2023-10-31T18:51:43.097Z,11.40
2023-10-31T18:54:10.883Z,11.50
2023-10-31T18:56:37.767Z,11.60
2023-10-31T18:59:04.804Z,11.70
2023-10-31T19:01:34.782Z,11.70
2023-10-31T19:04:02.484Z,11.70
2023-10-31T19:06:29.217Z,11.80
2023-10-31T19:08:55.981Z,11.90
2023-10-31T19:11:22.666Z,12.00
2023-10-31T19:13:49.383Z,12.00
2023-10-31T19:16:16.150Z,12.00
2023-10-31T19:18:42.869Z,12.00
2023-10-31T19:21:09.717Z,12.00
2023-10-31T19:23:36.430Z,12.00
2023-10-31T19:26:03.481Z,12.00
2023-10-31T19:28:30.222Z,12.00
2023-10-31T19:30:57.041Z,12.10
2023-10-31T19:33:23.872Z,12.00
2023-10-31T19:35:50.630Z,12.10
2023-10-31T19:38:17.409Z,12.10
2023-10-31T19:40:44.151Z,12.10
2023-10-31T19:43:10.853Z,12.10
2023-10-31T19:45:41.814Z,12.10
2023-10-31T19:48:09.509Z,12.10
2023-10-31T19:50:36.280Z,12.20
2023-10-31T19:53:03.083Z,12.10
2023-10-31T19:55:29.850Z,12.10
2023-10-31T19:57:56.566Z,12.10
2023-10-31T20:00:25.667Z,12.10
2023-10-31T20:02:53.172Z,12.10
2023-10-31T20:05:20.423Z,12.10
2023-10-31T20:07:47.280Z,12.10
2023-10-31T20:10:14.010Z,12.10
2023-10-31T20:12:40.742Z,12.20
2023-10-31T20:15:07.432Z,12.20
2023-10-31T20:17:35.869Z,12.20
2023-10-31T20:20:03.190Z,12.10
2023-10-31T20:22:29.908Z,12.10
2023-10-31T20:24:56.674Z,12.00
2023-10-31T20:27:23.483Z,12.00
2023-10-31T20:29:50.232Z,12.00
2023-10-31T20:32:16.917Z,12.00
2023-10-31T20:34:43.672Z,12.00
2023-10-31T20:37:10.729Z,11.90
2023-10-31T20:39:37.484Z,11.80
2023-10-31T20:42:04.329Z,11.80
2023-10-31T20:44:32.301Z,11.80
2023-10-31T20:46:59.020Z,11.80
2023-10-31T20:49:25.852Z,11.70
2023-10-31T20:51:54.191Z,11.70
2023-10-31T20:54:20.923Z,11.60
2023-10-31T20:56:47.685Z,11.60
2023-10-31T20:59:16.545Z,11.60
2023-10-31T21:01:43.970Z,11.60
2023-10-31T21:04:10.810Z,11.50
2023-10-31T21:06:37.636Z,11.50
2023-10-31T21:09:04.418Z,11.40
2023-10-31T21:11:31.123Z,11.40
2023-10-31T21:13:59.443Z,11.40
2023-10-31T21:16:26.265Z,11.40
2023-10-31T21:18:52.909Z,11.40
2023-10-31T21:21:19.604Z,11.30
2023-10-31T21:23:47.565Z,11.30
2023-10-31T21:26:14.362Z,11.30
2023-10-31T21:28:41.090Z,11.30
2023-10-31T21:31:07.758Z,11.30
2023-10-31T21:33:34.509Z,11.30
2023-10-31T21:36:01.197Z,11.20
2023-10-31T21:38:27.932Z,11.20
2023-10-31T21:40:54.712Z,11.20
2023-10-31T21:43:22.735Z,11.20
2023-10-31T21:45:49.494Z,11.20
2023-10-31T21:48:16.282Z,11.20
2023-10-31T21:50:43.054Z,11.20
2023-10-31T21:53:09.740Z,11.20
2023-10-31T21:55:36.497Z,11.20
2023-10-31T21:58:03.178Z,11.30
2023-10-31T22:00:30.576Z,11.30
2023-10-31T22:02:57.401Z,11.30
2023-10-31T22:05:24.328Z,11.30
2023-10-31T22:07:51.125Z,11.30
2023-10-31T22:10:17.886Z,11.30
2023-10-31T22:12:45.364Z,11.30
2023-10-31T22:15:12.112Z,11.30
2023-10-31T22:17:39.151Z,11.30
2023-10-31T22:20:06.392Z,11.30
2023-10-31T22:22:33.349Z,11.20
2023-10-31T22:25:00.240Z,11.20
2023-10-31T22:27:26.932Z,11.30
2023-10-31T22:29:53.784Z,11.30
2023-10-31T22:32:20.425Z,11.40
2023-10-31T22:34:47.168Z,11.40
2023-10-31T22:37:13.961Z,11.40
2023-10-31T22:39:40.674Z,11.40
2023-10-31T22:42:07.360Z,11.40
2023-10-31T22:44:34.097Z,11.40
2023-10-31T22:47:00.885Z,11.50
2023-10-31T22:49:27.749Z,11.50
2023-10-31T22:51:54.445Z,11.40
2023-10-31T22:54:21.135Z,11.40
2023-10-31T22:56:47.811Z,11.40
2023-10-31T22:59:14.702Z,11.40
2023-10-31T23:01:42.132Z,11.40
2023-10-31T23:04:08.892Z,11.30
2023-10-31T23:06:36.705Z,11.30
2023-10-31T23:09:08.968Z,11.40
2023-10-31T23:11:45.091Z,11.40
2023-10-31T23:14:12.256Z,11.30
2023-10-31T23:16:38.993Z,11.30
2023-10-31T23:19:05.719Z,11.30
2023-10-31T23:21:32.877Z,11.30
2023-10-31T23:23:59.765Z,11.30
2023-10-31T23:26:26.546Z,11.30
2023-10-31T23:28:53.325Z,11.30
2023-10-31T23:31:20.079Z,11.30
2023-10-31T23:33:47.690Z,11.30
2023-10-31T23:36:14.495Z,11.30
2023-10-31T23:38:41.366Z,11.20
2023-10-31T23:41:08.045Z,11.30
2023-10-31T23:43:34.899Z,11.30
2023-10-31T23:46:01.633Z,11.30
2023-10-31T23:48:28.354Z,11.30
2023-10-31T23:50:55.260Z,11.30
2023-10-31T23:53:22.092Z,11.30
2023-10-31T23:55:49.362Z,11.40
2023-10-31T23:58:16.115Z,11.40
